Time;durP1;ratioP1;P1;durP2;ratioP2;P2;SDS_P1;SDS_P2;PMS_P1;PMS_P2;Temp;Humidity;BMP_temperature;BMP_pressure;BME280_temperature;BME280_humidity;BME280_pressure;Samples;Min_cycle;Max_cycle;Signal;HPM_P1;HPM_P2
2022/07/28 00:00:39;;;;;;;1.23;0.50;;;;;;;;;;2080961;28;20021;-80
2022/07/28 00:01:57;;;;;;;3.92;0.60;;;;;;;;;;2081384;28;20435;-79
2022/07/28 00:03:16;;;;;;;0.88;0.55;;;;;;;;;;2072672;28;20046;-80
2022/07/28 00:04:35;;;;;;;2.25;0.60;;;;;;;;;;2078118;28;20025;-80
2022/07/28 00:05:54;;;;;;;0.93;0.65;;;;;;;;;;2081514;28;20101;-80
2022/07/28 00:07:13;;;;;;;0.75;0.50;;;;;;;;;;2081039;28;20070;-79
2022/07/28 00:08:32;;;;;;;1.77;0.50;;;;;;;;;;2071852;28;20034;-80
2022/07/28 00:09:50;;;;;;;2.03;0.40;;;;;;;;;;2077626;28;20108;-79
2022/07/28 00:11:09;;;;;;;1.05;0.50;;;;;;;;;;2082065;28;21468;-80
2022/07/28 00:12:28;;;;;;;3.08;0.73;;;;;;;;;;2081013;28;20048;-80
2022/07/28 00:13:47;;;;;;;0.68;0.50;;;;;;;;;;2081314;28;20406;-80
2022/07/28 00:15:06;;;;;;;2.55;0.60;;;;;;;;;;2080602;28;20455;-80
2022/07/28 00:16:25;;;;;;;1.70;0.60;;;;;;;;;;2081678;28;20507;-80
2022/07/28 00:17:44;;;;;;;0.98;0.55;;;;;;;;;;2072445;28;20067;-80
2022/07/28 00:19:03;;;;;;;0.50;0.45;;;;;;;;;;2076921;28;20029;-79
2022/07/28 00:20:22;;;;;;;1.67;0.82;;;;;;;;;;2072954;28;20042;-80
2022/07/28 00:21:41;;;;;;;2.13;0.65;;;;;;;;;;2069171;28;20112;-80
2022/07/28 00:23:00;;;;;;;1.98;0.47;;;;;;;;;;2068561;28;20101;-80
2022/07/28 00:24:19;;;;;;;1.35;0.50;;;;;;;;;;2069479;28;20123;-80
2022/07/28 00:25:38;;;;;;;0.90;0.30;;;;;;;;;;2078092;28;20037;-79
2022/07/28 00:26:57;;;;;;;0.40;0.40;;;;;;;;;;2081742;28;20030;-80
2022/07/28 00:28:16;;;;;;;1.25;0.45;;;;;;;;;;2080876;28;20503;-79
2022/07/28 00:29:35;;;;;;;0.93;0.60;;;;;;;;;;2079054;28;20033;-80
2022/07/28 00:30:54;;;;;;;1.42;0.30;;;;;;;;;;2080164;28;20387;-80
2022/07/28 00:32:13;;;;;;;0.80;0.40;;;;;;;;;;2072447;28;20022;-79
2022/07/28 00:33:32;;;;;;;4.68;0.47;;;;;;;;;;2068940;28;20090;-80
2022/07/28 00:34:50;;;;;;;1.60;0.50;;;;;;;;;;2077838;28;20026;-80
2022/07/28 00:36:09;;;;;;;0.30;0.30;;;;;;;;;;2072980;28;20101;-79
2022/07/28 00:37:28;;;;;;;0.52;0.50;;;;;;;;;;2075941;28;20033;-80
2022/07/28 00:38:47;;;;;;;2.30;0.50;;;;;;;;;;2063335;28;20038;-80
2022/07/28 00:40:06;;;;;;;0.45;0.40;;;;;;;;;;2068855;28;20034;-80
2022/07/28 00:41:25;;;;;;;0.55;0.50;;;;;;;;;;2073266;28;20038;-80
2022/07/28 00:42:44;;;;;;;0.60;0.40;;;;;;;;;;2072788;28;20034;-79
2022/07/28 00:44:04;;;;;;;1.20;0.50;;;;;;;;;;2064757;28;20050;-81
2022/07/28 00:45:23;;;;;;;1.13;0.50;;;;;;;;;;2070036;28;20038;-79
2022/07/28 00:46:42;;;;;;;1.60;0.50;;;;;;;;;;2072453;28;20042;-80
2022/07/28 00:48:01;;;;;;;0.63;0.40;;;;;;;;;;2072692;28;20038;-80
2022/07/28 00:49:21;;;;;;;0.50;0.40;;;;;;;;;;2064045;28;20480;-80
2022/07/28 00:50:42;;;;;;;1.83;0.50;;;;;;;;;;2061537;28;20034;-80
2022/07/28 00:52:01;;;;;;;1.15;0.30;;;;;;;;;;2070206;28;20122;-80
2022/07/28 00:53:20;;;;;;;0.55;0.40;;;;;;;;;;2071557;28;20054;-80
2022/07/28 00:54:39;;;;;;;0.38;0.30;;;;;;;;;;2072755;28;20395;-80
2022/07/28 00:55:58;;;;;;;1.13;0.30;;;;;;;;;;2072347;28;20037;-80
2022/07/28 00:57:19;;;;;;;1.05;0.50;;;;;;;;;;2072798;28;20109;-80
2022/07/28 00:58:38;;;;;;;0.52;0.40;;;;;;;;;;2064105;28;20399;-80
2022/07/28 00:59:57;;;;;;;2.28;0.30;;;;;;;;;;2057639;28;20043;-80
2022/07/28 01:01:18;;;;;;;1.67;0.47;;;;;;;;;;2059866;28;20575;-80
2022/07/28 01:02:37;;;;;;;0.47;0.30;;;;;;;;;;2069593;28;20108;-80
2022/07/28 01:03:58;;;;;;;0.82;0.50;;;;;;;;;;2063865;28;20555;-80
2022/07/28 01:05:17;;;;;;;0.40;0.40;;;;;;;;;;2070076;28;20116;-80
2022/07/28 01:06:55;;;;;;;0.57;0.57;;;;;;;;;;2069110;28;20407;-80
2022/07/28 01:08:26;;;;;;;0.68;0.30;;;;;;;;;;2063831;28;20031;-79
2022/07/28 01:10:04;;;;;;;0.85;0.40;;;;;;;;;;2062794;28;20022;-78
2022/07/28 01:11:45;;;;;;;1.58;0.50;;;;;;;;;;2072493;28;20026;-80
2022/07/28 01:13:15;;;;;;;0.30;0.30;;;;;;;;;;2073421;28;20487;-80
2022/07/28 01:14:57;;;;;;;0.93;0.30;;;;;;;;;;2064366;28;20038;-80
2022/07/28 01:16:16;;;;;;;1.77;0.40;;;;;;;;;;2063018;28;20524;-80
2022/07/28 01:17:35;;;;;;;0.47;0.20;;;;;;;;;;2060658;28;20026;-80
2022/07/28 01:19:04;;;;;;;0.38;0.25;;;;;;;;;;2069178;28;20108;-80
2022/07/28 01:20:40;;;;;;;2.05;0.30;;;;;;;;;;2073276;28;20117;-80
2022/07/28 01:22:00;;;;;;;0.45;0.40;;;;;;;;;;2073502;28;20049;-80
2022/07/28 01:23:39;;;;;;;0.20;0.20;;;;;;;;;;2060679;28;20044;-80
2022/07/28 01:25:02;;;;;;;0.50;0.40;;;;;;;;;;2071958;28;20041;-80
2022/07/28 01:26:30;;;;;;;0.85;0.30;;;;;;;;;;2063973;28;20063;-79
2022/07/28 01:27:53;;;;;;;0.30;0.30;;;;;;;;;;2063048;28;20467;-80
2022/07/28 01:29:31;;;;;;;0.88;0.50;;;;;;;;;;2061037;28;20087;-80
2022/07/28 01:30:53;;;;;;;0.25;0.25;;;;;;;;;;2063777;28;20030;-80
2022/07/28 01:32:16;;;;;;;1.38;0.30;;;;;;;;;;2069474;28;20097;-80
2022/07/28 01:33:43;;;;;;;2.78;0.40;;;;;;;;;;2071915;28;20054;-80
2022/07/28 01:35:02;;;;;;;0.35;0.30;;;;;;;;;;2063951;28;20038;-80
2022/07/28 01:36:22;;;;;;;0.60;0.25;;;;;;;;;;2060814;28;20027;-80
2022/07/28 01:37:43;;;;;;;1.25;0.30;;;;;;;;;;2060400;28;20617;-80
2022/07/28 01:39:02;;;;;;;0.30;0.20;;;;;;;;;;2064311;28;20066;-80
2022/07/28 01:40:21;;;;;;;0.50;0.25;;;;;;;;;;2061106;28;20026;-79
2022/07/28 01:41:42;;;;;;;0.77;0.30;;;;;;;;;;2069043;28;20034;-80
2022/07/28 01:43:03;;;;;;;0.50;0.20;;;;;;;;;;2063925;28;20054;-80
2022/07/28 01:44:23;;;;;;;1.52;0.35;;;;;;;;;;2069433;28;20026;-80
2022/07/28 01:45:43;;;;;;;0.43;0.30;;;;;;;;;;2064517;28;20034;-80
2022/07/28 01:47:06;;;;;;;0.30;0.20;;;;;;;;;;2069767;28;20467;-80
2022/07/28 01:48:25;;;;;;;0.40;0.30;;;;;;;;;;2072063;28;20034;-80
2022/07/28 01:49:45;;;;;;;0.30;0.30;;;;;;;;;;2071597;28;20034;-80
2022/07/28 01:51:05;;;;;;;0.88;0.35;;;;;;;;;;2072812;28;20486;-79
2022/07/28 01:52:24;;;;;;;0.55;0.30;;;;;;;;;;2072955;28;20033;-80
2022/07/28 01:53:44;;;;;;;0.77;0.22;;;;;;;;;;2072714;28;20026;-80
2022/07/28 01:55:05;;;;;;;2.05;0.30;;;;;;;;;;2064069;28;20122;-80
2022/07/28 01:56:25;;;;;;;1.88;0.30;;;;;;;;;;2069228;28;20042;-80
2022/07/28 01:57:44;;;;;;;0.30;0.30;;;;;;;;;;2058715;28;20031;-79
2022/07/28 01:59:05;;;;;;;0.40;0.28;;;;;;;;;;2058948;28;20039;-80
2022/07/28 02:00:24;;;;;;;0.40;0.32;;;;;;;;;;2059589;28;20535;-80
2022/07/28 02:01:44;;;;;;;0.52;0.30;;;;;;;;;;2069562;28;20037;-80
2022/07/28 02:03:05;;;;;;;0.20;0.20;;;;;;;;;;2063980;28;20026;-80
2022/07/28 02:04:25;;;;;;;2.70;0.30;;;;;;;;;;2069422;28;20037;-80
2022/07/28 02:05:46;;;;;;;2.63;0.30;;;;;;;;;;2072804;28;20033;-80
2022/07/28 02:07:07;;;;;;;0.20;0.20;;;;;;;;;;2072556;28;20041;-80
2022/07/28 02:08:28;;;;;;;2.92;1.00;;;;;;;;;;2072426;28;20029;-80
2022/07/28 02:09:47;;;;;;;0.85;0.50;;;;;;;;;;2063508;28;20053;-79
2022/07/28 02:12:46;;;;;;;2.92;0.50;;;;;;;;;;2072543;28;20026;-79
2022/07/28 02:14:09;;;;;;;0.30;0.30;;;;;;;;;;2072104;28;20025;-79
2022/07/28 02:15:29;;;;;;;1.42;0.30;;;;;;;;;;2071645;28;20034;-80
2022/07/28 02:16:53;;;;;;;0.95;0.30;;;;;;;;;;2066805;28;20030;-79
2022/07/28 02:18:12;;;;;;;1.60;0.40;;;;;;;;;;2061538;28;20022;-79
2022/07/28 02:19:31;;;;;;;0.80;0.55;;;;;;;;;;2068954;28;20033;-79
2022/07/28 02:20:50;;;;;;;1.45;0.30;;;;;;;;;;2062833;28;20464;-78
2022/07/28 02:22:09;;;;;;;1.30;0.50;;;;;;;;;;2067801;28;20022;-78
2022/07/28 02:23:28;;;;;;;1.58;0.25;;;;;;;;;;2072735;28;20104;-79
2022/07/28 02:24:48;;;;;;;0.68;0.30;;;;;;;;;;2063475;28;20038;-79
2022/07/28 02:26:08;;;;;;;0.35;0.20;;;;;;;;;;2068359;28;20034;-79
2022/07/28 02:27:35;;;;;;;0.73;0.45;;;;;;;;;;2072078;28;20026;-79
2022/07/28 02:28:56;;;;;;;1.67;0.30;;;;;;;;;;2072758;28;20033;-79
2022/07/28 02:30:16;;;;;;;0.30;0.30;;;;;;;;;;2072269;28;20022;-79
2022/07/28 02:31:38;;;;;;;0.40;0.30;;;;;;;;;;2072342;28;20033;-79
2022/07/28 02:33:00;;;;;;;0.65;0.38;;;;;;;;;;2072912;28;20038;-79
2022/07/28 02:34:21;;;;;;;0.40;0.30;;;;;;;;;;2063787;28;20038;-79
2022/07/28 02:35:53;;;;;;;0.38;0.30;;;;;;;;;;2065926;28;20030;-79
2022/07/28 02:37:14;;;;;;;3.83;0.30;;;;;;;;;;2062903;28;20026;-79
2022/07/28 02:38:37;;;;;;;0.40;0.30;;;;;;;;;;2064687;28;20038;-79
2022/07/28 02:39:57;;;;;;;0.98;0.20;;;;;;;;;;2077793;28;20105;-79
2022/07/28 02:41:19;;;;;;;2.45;0.30;;;;;;;;;;2071654;28;20030;-79
2022/07/28 02:42:39;;;;;;;3.70;0.70;;;;;;;;;;2074556;28;20042;-80
2022/07/28 02:44:03;;;;;;;0.38;0.30;;;;;;;;;;2079137;28;20068;-79
2022/07/28 02:45:25;;;;;;;2.42;0.40;;;;;;;;;;2079480;28;20057;-79
2022/07/28 02:46:45;;;;;;;0.35;0.30;;;;;;;;;;2075810;28;20522;-78
2022/07/28 02:48:06;;;;;;;0.73;0.40;;;;;;;;;;2078527;28;20108;-78
2022/07/28 02:49:29;;;;;;;0.30;0.30;;;;;;;;;;2079967;28;20029;-78
2022/07/28 02:50:50;;;;;;;1.27;0.30;;;;;;;;;;2080934;28;20037;-78
2022/07/28 02:52:10;;;;;;;0.47;0.40;;;;;;;;;;2066986;28;20065;-79
2022/07/28 02:53:29;;;;;;;0.20;0.20;;;;;;;;;;2076474;28;20033;-78
2022/07/28 02:54:50;;;;;;;0.80;0.47;;;;;;;;;;2082490;28;20025;-78
2022/07/28 02:56:10;;;;;;;1.05;0.68;;;;;;;;;;2083692;28;20025;-78
2022/07/28 02:57:29;;;;;;;0.98;0.20;;;;;;;;;;2082363;28;20033;-79
2022/07/28 02:58:49;;;;;;;1.85;0.30;;;;;;;;;;2082734;28;20124;-78
2022/07/28 03:00:09;;;;;;;0.20;0.20;;;;;;;;;;2083015;28;20065;-79
2022/07/28 03:01:27;;;;;;;0.25;0.20;;;;;;;;;;2074282;28;20037;-78
2022/07/28 03:02:47;;;;;;;0.75;0.47;;;;;;;;;;2080010;28;20033;-79
2022/07/28 03:04:07;;;;;;;0.68;0.30;;;;;;;;;;2083061;28;20498;-79
2022/07/28 03:05:27;;;;;;;0.57;0.30;;;;;;;;;;2083111;28;20034;-78
2022/07/28 03:06:46;;;;;;;0.40;0.22;;;;;;;;;;2082926;28;20037;-78
2022/07/28 03:08:05;;;;;;;0.30;0.30;;;;;;;;;;2074528;28;20055;-79
2022/07/28 03:09:24;;;;;;;1.10;0.50;;;;;;;;;;2079962;28;20120;-79
2022/07/28 03:10:43;;;;;;;0.93;0.30;;;;;;;;;;2081290;28;20030;-78
2022/07/28 03:12:02;;;;;;;0.82;0.25;;;;;;;;;;2074550;28;20026;-78
2022/07/28 03:13:20;;;;;;;1.17;0.40;;;;;;;;;;2072581;28;20137;-79
2022/07/28 03:14:40;;;;;;;1.30;0.28;;;;;;;;;;2071786;28;20511;-80
2022/07/28 03:15:59;;;;;;;0.43;0.20;;;;;;;;;;2079582;28;20136;-79
2022/07/28 03:17:18;;;;;;;0.93;0.30;;;;;;;;;;2082406;28;20491;-79
2022/07/28 03:18:36;;;;;;;0.52;0.50;;;;;;;;;;2074207;28;20527;-79
2022/07/28 03:19:55;;;;;;;0.20;0.20;;;;;;;;;;2077002;28;20496;-79
2022/07/28 03:21:14;;;;;;;0.45;0.17;;;;;;;;;;2081042;28;20033;-79
2022/07/28 03:22:33;;;;;;;2.10;0.40;;;;;;;;;;2082588;28;20029;-79
2022/07/28 03:23:52;;;;;;;0.43;0.30;;;;;;;;;;2074382;28;20030;-79
2022/07/28 03:25:30;;;;;;;0.68;0.28;;;;;;;;;;2079943;28;20482;-79
2022/07/28 03:26:55;;;;;;;0.28;0.10;;;;;;;;;;2074912;28;20080;-79
2022/07/28 03:28:18;;;;;;;0.40;0.30;;;;;;;;;;2079549;28;20022;-79
2022/07/28 03:29:37;;;;;;;0.30;0.20;;;;;;;;;;2074555;28;20026;-79
2022/07/28 03:30:59;;;;;;;1.83;0.30;;;;;;;;;;2070732;28;20454;-80
2022/07/28 03:32:19;;;;;;;0.57;0.20;;;;;;;;;;2075990;28;20146;-79
2022/07/28 03:33:38;;;;;;;0.20;0.20;;;;;;;;;;2080979;28;20025;-79
2022/07/28 03:34:57;;;;;;;0.73;0.20;;;;;;;;;;2082758;28;20069;-79
2022/07/28 03:36:18;;;;;;;2.05;0.30;;;;;;;;;;2082334;28;20030;-78
2022/07/28 03:37:41;;;;;;;0.80;0.40;;;;;;;;;;2082507;28;20033;-79
2022/07/28 03:39:01;;;;;;;0.40;0.40;;;;;;;;;;2074791;28;20126;-79
2022/07/28 03:40:22;;;;;;;0.22;0.20;;;;;;;;;;2079422;28;20030;-79
2022/07/28 03:41:42;;;;;;;0.32;0.30;;;;;;;;;;2082291;28;20033;-79
2022/07/28 03:43:07;;;;;;;0.60;0.30;;;;;;;;;;2081203;28;20104;-78
2022/07/28 03:44:26;;;;;;;0.50;0.38;;;;;;;;;;2078662;28;20042;-79
2022/07/28 03:45:46;;;;;;;0.35;0.20;;;;;;;;;;2072694;28;20034;-79
2022/07/28 03:47:06;;;;;;;0.30;0.30;;;;;;;;;;2080166;28;20499;-79
2022/07/28 03:48:28;;;;;;;0.57;0.30;;;;;;;;;;2082457;28;20140;-79
2022/07/28 03:49:48;;;;;;;0.30;0.10;;;;;;;;;;2078395;28;20030;-79
2022/07/28 03:51:07;;;;;;;0.38;0.28;;;;;;;;;;2081535;28;20029;-79
2022/07/28 03:52:26;;;;;;;0.98;0.38;;;;;;;;;;2074489;28;20026;-78
2022/07/28 03:53:45;;;;;;;1.85;0.40;;;;;;;;;;2079154;28;20025;-79
2022/07/28 03:55:04;;;;;;;3.25;0.40;;;;;;;;;;2073853;28;20022;-79
2022/07/28 03:56:24;;;;;;;0.88;0.40;;;;;;;;;;2074344;28;20065;-79
2022/07/28 03:57:43;;;;;;;2.63;0.43;;;;;;;;;;2074536;28;20030;-79
2022/07/28 03:59:02;;;;;;;0.50;0.28;;;;;;;;;;2079886;28;20033;-79
2022/07/28 04:00:22;;;;;;;2.05;0.30;;;;;;;;;;2075127;28;20030;-80
2022/07/28 04:01:41;;;;;;;0.50;0.30;;;;;;;;;;2079490;28;20033;-79
2022/07/28 04:03:00;;;;;;;1.25;0.20;;;;;;;;;;2073383;28;20042;-79
2022/07/28 04:04:18;;;;;;;0.30;0.25;;;;;;;;;;2078275;28;20034;-79
2022/07/28 04:05:37;;;;;;;0.30;0.30;;;;;;;;;;2072608;28;20034;-79
2022/07/28 04:06:56;;;;;;;0.95;0.35;;;;;;;;;;2069922;28;20042;-79
2022/07/28 04:08:15;;;;;;;0.57;0.30;;;;;;;;;;2077832;28;20033;-79
2022/07/28 04:09:34;;;;;;;0.25;0.20;;;;;;;;;;2082181;28;20021;-79
2022/07/28 04:10:53;;;;;;;1.25;0.30;;;;;;;;;;2082047;28;20026;-79
2022/07/28 04:12:12;;;;;;;1.05;0.13;;;;;;;;;;2073048;28;20483;-79
2022/07/28 04:13:31;;;;;;;0.65;0.40;;;;;;;;;;2066062;28;20030;-80
2022/07/28 04:14:50;;;;;;;1.00;0.55;;;;;;;;;;2076793;28;20121;-80
2022/07/28 04:16:09;;;;;;;1.48;0.20;;;;;;;;;;2082061;28;20053;-78
2022/07/28 04:17:27;;;;;;;0.55;0.30;;;;;;;;;;2080560;28;20025;-80
2022/07/28 04:18:46;;;;;;;0.32;0.32;;;;;;;;;;2072623;28;20030;-80
2022/07/28 04:20:06;;;;;;;2.03;0.35;;;;;;;;;;2077971;28;20038;-80
2022/07/28 04:21:25;;;;;;;1.30;0.30;;;;;;;;;;2072660;28;20033;-80
2022/07/28 04:22:44;;;;;;;0.50;0.30;;;;;;;;;;2076118;28;20344;-79
2022/07/28 04:24:03;;;;;;;0.30;0.30;;;;;;;;;;2072308;28;20050;-80
2022/07/28 04:25:23;;;;;;;1.05;0.22;;;;;;;;;;2069976;28;20023;-80
2022/07/28 04:26:42;;;;;;;0.30;0.25;;;;;;;;;;2077831;28;20033;-80
2022/07/28 04:28:01;;;;;;;1.17;0.30;;;;;;;;;;2080807;28;20116;-79
2022/07/28 04:29:21;;;;;;;1.27;0.30;;;;;;;;;;2081673;28;20030;-80
2022/07/28 04:30:40;;;;;;;0.20;0.20;;;;;;;;;;2081615;28;20049;-79
2022/07/28 04:31:59;;;;;;;0.22;0.20;;;;;;;;;;2073027;28;20030;-80
2022/07/28 04:33:18;;;;;;;0.73;0.40;;;;;;;;;;2077603;28;20029;-80
2022/07/28 04:34:37;;;;;;;0.55;0.25;;;;;;;;;;2072907;28;20026;-80
2022/07/28 04:35:56;;;;;;;1.67;0.22;;;;;;;;;;2069763;28;20033;-80
2022/07/28 04:37:14;;;;;;;1.13;0.35;;;;;;;;;;2069754;28;20034;-80
2022/07/28 04:38:35;;;;;;;1.30;0.50;;;;;;;;;;2077742;28;20045;-80
2022/07/28 04:39:53;;;;;;;0.30;0.30;;;;;;;;;;2081038;28;20112;-80
2022/07/28 04:41:12;;;;;;;0.57;0.30;;;;;;;;;;2081065;28;20021;-80
2022/07/28 04:42:32;;;;;;;0.28;0.22;;;;;;;;;;2073003;28;20160;-78
2022/07/28 04:43:51;;;;;;;0.55;0.47;;;;;;;;;;2078113;28;20045;-80
2022/07/28 04:45:12;;;;;;;1.63;0.50;;;;;;;;;;2081484;28;20037;-80
2022/07/28 04:46:33;;;;;;;0.63;0.30;;;;;;;;;;2080439;28;20025;-80
2022/07/28 04:47:52;;;;;;;1.52;0.85;;;;;;;;;;2072226;28;20117;-79
2022/07/28 04:49:11;;;;;;;2.42;0.40;;;;;;;;;;2077842;28;20064;-79
2022/07/28 04:50:30;;;;;;;0.65;0.20;;;;;;;;;;2072918;28;20034;-80
2022/07/28 04:51:51;;;;;;;0.20;0.20;;;;;;;;;;2078401;28;20172;-80
2022/07/28 04:53:10;;;;;;;0.17;0.10;;;;;;;;;;2076760;28;20054;-80
2022/07/28 04:54:29;;;;;;;0.30;0.20;;;;;;;;;;2080029;28;20021;-80
2022/07/28 04:55:48;;;;;;;0.77;0.40;;;;;;;;;;2072272;28;20030;-80
2022/07/28 04:57:09;;;;;;;2.97;0.50;;;;;;;;;;2077876;28;20971;-80
2022/07/28 04:58:28;;;;;;;0.32;0.32;;;;;;;;;;2077399;28;20112;-80
2022/07/28 04:59:47;;;;;;;0.32;0.32;;;;;;;;;;2070828;28;20026;-79
2022/07/28 05:01:06;;;;;;;2.47;0.40;;;;;;;;;;2077930;28;20021;-80
2022/07/28 05:02:25;;;;;;;2.45;0.35;;;;;;;;;;2081299;28;20033;-80
2022/07/28 05:03:44;;;;;;;0.77;0.30;;;;;;;;;;2071375;28;20022;-80
2022/07/28 05:05:03;;;;;;;1.90;0.52;;;;;;;;;;2071099;28;20102;-80
2022/07/28 05:06:22;;;;;;;1.85;0.30;;;;;;;;;;2078028;28;20033;-79
2022/07/28 05:07:41;;;;;;;2.35;0.30;;;;;;;;;;2072278;28;20443;-80
2022/07/28 05:09:00;;;;;;;1.13;0.30;;;;;;;;;;2064580;28;20026;-80
2022/07/28 05:10:19;;;;;;;2.70;0.50;;;;;;;;;;2075979;28;20064;-80
2022/07/28 05:11:38;;;;;;;1.75;0.40;;;;;;;;;;2071944;28;20030;-79
2022/07/28 05:12:56;;;;;;;0.50;0.50;;;;;;;;;;2077951;28;20494;-79
2022/07/28 05:14:16;;;;;;;0.35;0.35;;;;;;;;;;2081198;28;20026;-80
2022/07/28 05:15:35;;;;;;;0.70;0.30;;;;;;;;;;2079884;28;20491;-80
2022/07/28 05:16:54;;;;;;;0.30;0.20;;;;;;;;;;2071910;28;20038;-80
2022/07/28 05:18:13;;;;;;;1.48;0.30;;;;;;;;;;2078003;28;20029;-80
2022/07/28 05:19:32;;;;;;;0.65;0.30;;;;;;;;;;2080891;28;20025;-80
2022/07/28 05:20:51;;;;;;;1.50;0.30;;;;;;;;;;2072604;28;20022;-80
2022/07/28 05:22:10;;;;;;;1.90;0.30;;;;;;;;;;2077219;28;20025;-80
2022/07/28 05:23:29;;;;;;;1.58;0.75;;;;;;;;;;2081716;28;20065;-80
2022/07/28 05:24:48;;;;;;;0.40;0.30;;;;;;;;;;2081359;28;20061;-80
2022/07/28 05:26:07;;;;;;;0.73;0.35;;;;;;;;;;2081600;28;20029;-80
2022/07/28 05:27:26;;;;;;;2.17;0.28;;;;;;;;;;2080830;28;20026;-80
2022/07/28 05:28:45;;;;;;;2.33;0.50;;;;;;;;;;2081257;28;20030;-80
2022/07/28 05:30:04;;;;;;;0.85;0.30;;;;;;;;;;2072616;28;20030;-81
2022/07/28 05:31:23;;;;;;;1.65;0.30;;;;;;;;;;2074946;28;20037;-80
2022/07/28 05:32:44;;;;;;;0.98;0.47;;;;;;;;;;2078485;28;20042;-80
2022/07/28 05:34:02;;;;;;;2.28;0.40;;;;;;;;;;2081381;28;20037;-79
2022/07/28 05:35:21;;;;;;;0.47;0.40;;;;;;;;;;2072699;28;20030;-80
2022/07/28 05:36:40;;;;;;;1.88;0.30;;;;;;;;;;2077386;28;20138;-80
2022/07/28 05:37:59;;;;;;;0.75;0.40;;;;;;;;;;2080211;28;20050;-79
2022/07/28 05:39:18;;;;;;;3.15;0.50;;;;;;;;;;2072298;28;20116;-79
2022/07/28 05:40:37;;;;;;;4.47;0.45;;;;;;;;;;2077641;28;20057;-80
2022/07/28 05:41:56;;;;;;;0.95;0.22;;;;;;;;;;2072294;28;20038;-80
2022/07/28 05:43:15;;;;;;;2.28;0.60;;;;;;;;;;2077489;28;20045;-80
2022/07/28 05:44:34;;;;;;;0.90;0.38;;;;;;;;;;2071957;28;20117;-80
2022/07/28 05:45:53;;;;;;;1.67;0.40;;;;;;;;;;2077858;28;20057;-79
2022/07/28 05:47:12;;;;;;;0.88;0.50;;;;;;;;;;2081523;28;20078;-81
2022/07/28 05:48:32;;;;;;;0.60;0.40;;;;;;;;;;2080637;28;20549;-79
2022/07/28 05:49:51;;;;;;;1.85;0.40;;;;;;;;;;2072003;28;20065;-79
2022/07/28 05:51:09;;;;;;;0.25;0.20;;;;;;;;;;2077042;28;20025;-79
2022/07/28 05:52:29;;;;;;;0.73;0.50;;;;;;;;;;2080968;28;20029;-80
2022/07/28 05:53:47;;;;;;;0.22;0.20;;;;;;;;;;2081018;28;20108;-80
2022/07/28 05:55:07;;;;;;;0.98;0.35;;;;;;;;;;2072181;28;20030;-80
2022/07/28 05:56:26;;;;;;;0.80;0.30;;;;;;;;;;2067917;28;20022;-80
2022/07/28 05:57:45;;;;;;;0.90;0.40;;;;;;;;;;2069099;28;20529;-80
2022/07/28 05:59:08;;;;;;;2.10;0.38;;;;;;;;;;2072345;28;20030;-79
2022/07/28 06:00:27;;;;;;;1.20;0.30;;;;;;;;;;2073705;28;20483;-79
2022/07/28 06:01:46;;;;;;;0.10;0.10;;;;;;;;;;2078170;28;20495;-79
2022/07/28 06:03:06;;;;;;;0.68;0.60;;;;;;;;;;2080812;28;20034;-80
2022/07/28 06:04:25;;;;;;;0.82;0.30;;;;;;;;;;2072270;28;20571;-80
2022/07/28 06:05:44;;;;;;;1.15;0.32;;;;;;;;;;2077297;28;20061;-80
2022/07/28 06:07:02;;;;;;;0.63;0.30;;;;;;;;;;2080728;28;20034;-80
2022/07/28 06:08:23;;;;;;;0.20;0.20;;;;;;;;;;2080269;28;20041;-79
2022/07/28 06:09:42;;;;;;;0.63;0.50;;;;;;;;;;2081076;28;20037;-80
2022/07/28 06:11:07;;;;;;;1.33;0.35;;;;;;;;;;2081383;28;20026;-80
2022/07/28 06:12:26;;;;;;;0.40;0.20;;;;;;;;;;2071878;28;20026;-80
2022/07/28 06:13:45;;;;;;;0.38;0.10;;;;;;;;;;2068260;28;20046;-80
2022/07/28 06:15:04;;;;;;;0.70;0.30;;;;;;;;;;2076727;28;20423;-80
2022/07/28 06:16:24;;;;;;;0.85;0.30;;;;;;;;;;2079684;28;20029;-80
2022/07/28 06:17:42;;;;;;;0.68;0.22;;;;;;;;;;2072292;28;20026;-80
2022/07/28 06:19:01;;;;;;;0.43;0.40;;;;;;;;;;2076935;28;20045;-80
2022/07/28 06:20:21;;;;;;;0.47;0.25;;;;;;;;;;2079842;28;20034;-80
2022/07/28 06:21:40;;;;;;;2.63;0.40;;;;;;;;;;2072413;28;20116;-80
2022/07/28 06:22:58;;;;;;;1.50;0.50;;;;;;;;;;2077363;28;20037;-80
2022/07/28 06:24:17;;;;;;;4.28;0.30;;;;;;;;;;2071653;28;20034;-80
2022/07/28 06:25:36;;;;;;;0.35;0.30;;;;;;;;;;2076555;28;20113;-80
2022/07/28 06:26:55;;;;;;;0.60;0.30;;;;;;;;;;2071679;28;20530;-80
2022/07/28 06:28:14;;;;;;;1.20;0.25;;;;;;;;;;2077115;28;20482;-80
2022/07/28 06:29:33;;;;;;;0.55;0.30;;;;;;;;;;2072184;28;20030;-80
2022/07/28 06:30:52;;;;;;;0.40;0.25;;;;;;;;;;2068562;28;20038;-81
2022/07/28 06:32:11;;;;;;;1.58;0.22;;;;;;;;;;2068263;28;20022;-80
2022/07/28 06:33:30;;;;;;;0.38;0.20;;;;;;;;;;2067887;28;20022;-80
2022/07/28 06:34:49;;;;;;;2.60;0.30;;;;;;;;;;2071940;28;20030;-80
2022/07/28 06:36:08;;;;;;;0.65;0.30;;;;;;;;;;2071705;28;20038;-81
2022/07/28 06:37:26;;;;;;;1.33;0.52;;;;;;;;;;2077075;28;20029;-79
2022/07/28 06:38:46;;;;;;;0.63;0.30;;;;;;;;;;2080453;28;20053;-80
2022/07/28 06:40:06;;;;;;;0.68;0.32;;;;;;;;;;2080529;28;20049;-80
2022/07/28 06:41:24;;;;;;;0.28;0.28;;;;;;;;;;2080505;28;20030;-81
2022/07/28 06:42:45;;;;;;;0.43;0.20;;;;;;;;;;2080422;28;20105;-81
2022/07/28 06:44:04;;;;;;;2.67;0.20;;;;;;;;;;2081286;28;20021;-81
2022/07/28 06:45:23;;;;;;;2.25;0.40;;;;;;;;;;2072145;28;20513;-81
2022/07/28 06:46:42;;;;;;;1.10;0.20;;;;;;;;;;2077011;28;20041;-81
2022/07/28 06:48:01;;;;;;;1.45;0.30;;;;;;;;;;2080097;28;20026;-82
2022/07/28 06:49:20;;;;;;;13.88;0.50;;;;;;;;;;2080420;28;20041;-81
2022/07/28 06:50:39;;;;;;;1.27;0.20;;;;;;;;;;2081469;28;20033;-80
2022/07/28 06:51:59;;;;;;;0.25;0.20;;;;;;;;;;2080322;28;20037;-81
2022/07/28 06:53:18;;;;;;;3.10;0.40;;;;;;;;;;2071863;28;20488;-81
2022/07/28 06:54:37;;;;;;;0.22;0.10;;;;;;;;;;2064677;28;20038;-80
2022/07/28 06:55:56;;;;;;;0.47;0.25;;;;;;;;;;2075579;28;20033;-82
2022/07/28 06:57:15;;;;;;;1.65;0.35;;;;;;;;;;2080170;28;20037;-81
2022/07/28 06:58:34;;;;;;;1.65;0.20;;;;;;;;;;2080473;28;20108;-81
2022/07/28 06:59:53;;;;;;;1.98;0.22;;;;;;;;;;2080810;28;20491;-81
2022/07/28 07:01:13;;;;;;;2.65;0.35;;;;;;;;;;2071692;28;20034;-81
2022/07/28 07:02:36;;;;;;;0.85;0.35;;;;;;;;;;2077404;28;20425;-82
2022/07/28 07:03:55;;;;;;;2.80;0.30;;;;;;;;;;2080155;28;20034;-80
2022/07/28 07:05:14;;;;;;;2.20;0.30;;;;;;;;;;2071621;28;20030;-81
2022/07/28 07:06:33;;;;;;;0.50;0.30;;;;;;;;;;2068928;28;20026;-81
2022/07/28 07:07:51;;;;;;;2.95;0.32;;;;;;;;;;2077485;28;20030;-81
2022/07/28 07:09:10;;;;;;;0.88;0.30;;;;;;;;;;2080147;28;20029;-81
2022/07/28 07:10:30;;;;;;;2.15;0.30;;;;;;;;;;2080366;28;20422;-81
2022/07/28 07:11:48;;;;;;;0.95;0.15;;;;;;;;;;2080276;28;20116;-81
2022/07/28 07:13:08;;;;;;;0.82;0.30;;;;;;;;;;2080618;28;20026;-81
2022/07/28 07:14:27;;;;;;;0.68;0.43;;;;;;;;;;2080484;28;20030;-80
2022/07/28 07:15:46;;;;;;;1.15;0.60;;;;;;;;;;2080155;28;20029;-81
2022/07/28 07:17:05;;;;;;;1.88;0.20;;;;;;;;;;2080580;28;20033;-80
2022/07/28 07:18:24;;;;;;;1.55;0.40;;;;;;;;;;2080994;28;20029;-82
2022/07/28 07:19:43;;;;;;;0.30;0.20;;;;;;;;;;2080682;28;20025;-81
2022/07/28 07:21:02;;;;;;;1.83;0.25;;;;;;;;;;2071779;28;20026;-80
2022/07/28 07:22:21;;;;;;;1.45;0.30;;;;;;;;;;2068736;28;20112;-81
2022/07/28 07:23:40;;;;;;;1.02;0.30;;;;;;;;;;2068780;28;20026;-81
2022/07/28 07:25:06;;;;;;;1.23;0.38;;;;;;;;;;2074265;28;20037;-80
2022/07/28 07:26:25;;;;;;;1.55;0.20;;;;;;;;;;2069992;28;20500;-81
2022/07/28 07:27:44;;;;;;;1.00;0.30;;;;;;;;;;2073350;28;21438;-81
2022/07/28 07:29:04;;;;;;;0.28;0.20;;;;;;;;;;2078706;28;20037;-81
2022/07/28 07:30:26;;;;;;;0.17;0.17;;;;;;;;;;2079486;28;20108;-80
2022/07/28 07:31:44;;;;;;;0.70;0.30;;;;;;;;;;2075442;28;20026;-80
2022/07/28 07:33:03;;;;;;;0.40;0.20;;;;;;;;;;2080428;28;20021;-81
2022/07/28 07:34:22;;;;;;;0.45;0.10;;;;;;;;;;2071701;28;20026;-80
2022/07/28 07:35:41;;;;;;;1.65;0.30;;;;;;;;;;2077619;28;20026;-81
2022/07/28 07:37:00;;;;;;;2.13;0.20;;;;;;;;;;2080829;28;20033;-80
2022/07/28 07:38:20;;;;;;;2.00;0.30;;;;;;;;;;2072417;28;20137;-81
2022/07/28 07:39:39;;;;;;;1.02;0.22;;;;;;;;;;2069570;28;20507;-81
2022/07/28 07:40:59;;;;;;;0.70;0.40;;;;;;;;;;2078202;28;20034;-80
2022/07/28 07:42:18;;;;;;;0.57;0.30;;;;;;;;;;2073534;28;20415;-81
2022/07/28 07:43:37;;;;;;;0.63;0.30;;;;;;;;;;2078878;28;20034;-79
2022/07/28 07:44:56;;;;;;;0.35;0.15;;;;;;;;;;2080887;28;20033;-80
2022/07/28 07:46:15;;;;;;;0.30;0.20;;;;;;;;;;2081570;28;20125;-80
2022/07/28 07:47:34;;;;;;;0.73;0.20;;;;;;;;;;2073443;28;20443;-80
2022/07/28 07:48:54;;;;;;;1.80;0.20;;;;;;;;;;2078191;28;20112;-80
2022/07/28 07:50:13;;;;;;;0.75;0.45;;;;;;;;;;2073046;28;20067;-79
2022/07/28 07:51:32;;;;;;;0.55;0.30;;;;;;;;;;2078180;28;20104;-81
2022/07/28 07:52:51;;;;;;;1.05;0.40;;;;;;;;;;2073467;28;20139;-79
2022/07/28 07:54:10;;;;;;;0.80;0.20;;;;;;;;;;2072724;28;20026;-79
2022/07/28 07:55:29;;;;;;;3.42;0.50;;;;;;;;;;2078442;28;20108;-80
2022/07/28 07:56:48;;;;;;;2.50;0.50;;;;;;;;;;2081581;28;20034;-79
2022/07/28 07:58:07;;;;;;;0.75;0.40;;;;;;;;;;2081106;28;20030;-82
2022/07/28 07:59:26;;;;;;;1.55;0.20;;;;;;;;;;2073261;28;20029;-81
2022/07/28 08:00:45;;;;;;;0.35;0.20;;;;;;;;;;2076886;28;20104;-80
2022/07/28 08:02:04;;;;;;;0.82;0.25;;;;;;;;;;2072994;28;20026;-79